Hauptseite
METAR-TAF:

METAR-TAF

Flughäfen :

Machala, Ecuador

Breite: 03-26-07S, Länge: 079-58-40W, Höhe: 52 m

Beobachtung

Neuester Wetterbericht von vor 10 Stunden und 38 Minuten, um 00:00 UTC
Wind 5 kt aus West/Südwest
Temperatur 25°C
Luftfeuchtigkeit 74%
Luftdruck 1011 hPa
Sichtweite 10 km oder mehr
Durchbrochene Bewölkung in der Höhe von 1600 ft

METAR: SERO 220000Z 24005KT 9999 BKN016 25/20 Q1011

Zeit: 05:38 (10:38 UTC)


TAF: fehlend

Wetterbeobachtungen und Prognosen von mehr als 4000 Flughäfen (METAR und TAF Bericht).

Die verfügbaren Stationen werden durch gelbe und rote Markierungen auf der Karte dargestellt.

Führen Sie die Maus auf sie, um den Namen der Station zu sehen.

Darauf klicken, um die Beobachtung von Wetterbeobachtungen und Prognosen zu sehen.

Um die Karte zu ändern : klicken Sie auf den grünen Tasten mit einem schwarzen Kreuz Zum Vergrößern, auf den grünen Button mit einem Gedankenstrich zu verkleinern, oder auf die grünen Pfeile für benachbarte Karten.


METAR-TAF: